sensor_id;sensor_type;location;lat;lon;timestamp;pressure;altitude;pressure_sealevel;temperature;humidity
12987;BME280;58897;51.960;5.582;2023-03-20T00:01:44;101672.59;;;9.28;100.00
12987;BME280;58897;51.960;5.582;2023-03-20T00:04:12;101674.38;;;9.18;100.00
12987;BME280;58897;51.960;5.582;2023-03-20T00:06:39;101670.09;;;9.15;100.00
12987;BME280;58897;51.960;5.582;2023-03-20T00:09:05;101669.47;;;9.02;100.00
12987;BME280;58897;51.960;5.582;2023-03-20T00:11:34;101664.38;;;8.99;100.00
12987;BME280;58897;51.960;5.582;2023-03-20T00:14:03;101662.31;;;9.12;100.00
12987;BME280;58897;51.960;5.582;2023-03-20T00:16:36;101660.06;;;9.17;100.00
12987;BME280;58897;51.960;5.582;2023-03-20T00:19:05;101660.78;;;9.19;100.00
12987;BME280;58897;51.960;5.582;2023-03-20T00:21:31;101662.16;;;9.14;100.00
12987;BME280;58897;51.960;5.582;2023-03-20T00:23:58;101655.16;;;9.02;100.00
12987;BME280;58897;51.960;5.582;2023-03-20T00:26:29;101660.72;;;9.10;100.00
12987;BME280;58897;51.960;5.582;2023-03-20T00:28:58;101674.41;;;8.97;100.00
12987;BME280;58897;51.960;5.582;2023-03-20T00:31:28;101659.69;;;9.01;100.00
12987;BME280;58897;51.960;5.582;2023-03-20T00:33:58;101655.59;;;9.07;100.00
12987;BME280;58897;51.960;5.582;2023-03-20T00:36:26;101654.59;;;9.08;100.00
12987;BME280;58897;51.960;5.582;2023-03-20T00:38:53;101642.25;;;9.05;100.00
12987;BME280;58897;51.960;5.582;2023-03-20T00:41:28;101647.06;;;9.02;100.00
12987;BME280;58897;51.960;5.582;2023-03-20T00:44:00;101645.88;;;8.95;100.00
12987;BME280;58897;51.960;5.582;2023-03-20T00:46:30;101653.66;;;8.88;100.00
12987;BME280;58897;51.960;5.582;2023-03-20T00:49:00;101649.31;;;8.76;100.00
12987;BME280;58897;51.960;5.582;2023-03-20T00:51:27;101641.16;;;8.87;100.00
12987;BME280;58897;51.960;5.582;2023-03-20T00:53:54;101636.28;;;9.02;100.00
12987;BME280;58897;51.960;5.582;2023-03-20T00:56:34;101638.31;;;9.09;100.00
12987;BME280;58897;51.960;5.582;2023-03-20T00:59:02;101657.94;;;8.91;100.00
12987;BME280;58897;51.960;5.582;2023-03-20T01:01:29;101676.19;;;8.87;100.00
12987;BME280;58897;51.960;5.582;2023-03-20T01:04:00;101678.81;;;8.98;100.00
12987;BME280;58897;51.960;5.582;2023-03-20T01:06:27;101686.66;;;8.81;100.00
12987;BME280;58897;51.960;5.582;2023-03-20T01:08:54;101680.84;;;8.85;100.00
12987;BME280;58897;51.960;5.582;2023-03-20T01:11:23;101687.97;;;8.86;100.00
12987;BME280;58897;51.960;5.582;2023-03-20T01:13:50;101695.50;;;8.72;100.00
12987;BME280;58897;51.960;5.582;2023-03-20T01:16:23;101700.44;;;8.87;100.00
12987;BME280;58897;51.960;5.582;2023-03-20T01:18:52;101709.97;;;8.91;100.00
12987;BME280;58897;51.960;5.582;2023-03-20T01:21:19;101716.47;;;8.68;100.00
12987;BME280;58897;51.960;5.582;2023-03-20T01:23:47;101709.97;;;8.71;100.00
12987;BME280;58897;51.960;5.582;2023-03-20T01:26:32;101696.50;;;8.91;100.00
12987;BME280;58897;51.960;5.582;2023-03-20T01:28:59;101679.28;;;8.83;100.00
12987;BME280;58897;51.960;5.582;2023-03-20T01:31:25;101669.16;;;8.75;100.00
12987;BME280;58897;51.960;5.582;2023-03-20T01:33:52;101670.13;;;8.95;100.00
12987;BME280;58897;51.960;5.582;2023-03-20T01:36:21;101678.38;;;8.93;100.00
12987;BME280;58897;51.960;5.582;2023-03-20T01:38:57;101677.50;;;8.72;100.00
12987;BME280;58897;51.960;5.582;2023-03-20T01:41:25;101680.16;;;8.83;100.00
12987;BME280;58897;51.960;5.582;2023-03-20T01:43:52;101668.09;;;8.66;100.00
12987;BME280;58897;51.960;5.582;2023-03-20T01:46:24;101676.25;;;8.76;100.00
12987;BME280;58897;51.960;5.582;2023-03-20T01:51:29;101677.91;;;8.67;100.00
12987;BME280;58897;51.960;5.582;2023-03-20T01:54:02;101671.91;;;8.85;100.00
12987;BME280;58897;51.960;5.582;2023-03-20T01:56:34;101672.31;;;8.80;100.00
12987;BME280;58897;51.960;5.582;2023-03-20T01:59:09;101673.50;;;8.87;100.00
12987;BME280;58897;51.960;5.582;2023-03-20T02:01:39;101664.53;;;8.87;100.00
12987;BME280;58897;51.960;5.582;2023-03-20T02:04:08;101671.41;;;8.91;100.00
12987;BME280;58897;51.960;5.582;2023-03-20T02:06:35;101663.78;;;8.54;100.00
12987;BME280;58897;51.960;5.582;2023-03-20T02:09:03;101666.59;;;8.74;100.00
12987;BME280;58897;51.960;5.582;2023-03-20T02:11:30;101658.84;;;8.59;100.00
12987;BME280;58897;51.960;5.582;2023-03-20T02:13:58;101649.16;;;8.68;100.00
12987;BME280;58897;51.960;5.582;2023-03-20T02:16:26;101648.28;;;8.47;100.00
12987;BME280;58897;51.960;5.582;2023-03-20T02:18:54;101654.69;;;8.35;100.00
12987;BME280;58897;51.960;5.582;2023-03-20T02:38:15;101666.59;;;8.21;100.00
12987;BME280;58897;51.960;5.582;2023-03-20T02:41:20;101655.28;;;8.38;100.00
12987;BME280;58897;51.960;5.582;2023-03-20T02:44:12;101647.22;;;8.38;100.00
12987;BME280;58897;51.960;5.582;2023-03-20T02:46:51;101641.81;;;8.38;100.00
12987;BME280;58897;51.960;5.582;2023-03-20T02:54:45;101661.44;;;8.29;100.00
12987;BME280;58897;51.960;5.582;2023-03-20T03:02:53;101648.97;;;8.28;100.00
12987;BME280;58897;51.960;5.582;2023-03-20T03:05:28;101654.81;;;8.22;100.00
12987;BME280;58897;51.960;5.582;2023-03-20T03:07:59;101654.16;;;8.09;100.00
12987;BME280;58897;51.960;5.582;2023-03-20T03:10:32;101654.34;;;8.17;100.00
12987;BME280;58897;51.960;5.582;2023-03-20T03:13:02;101632.81;;;8.28;100.00
12987;BME280;58897;51.960;5.582;2023-03-20T03:15:43;101627.22;;;8.09;100.00
12987;BME280;58897;51.960;5.582;2023-03-20T03:18:16;101619.72;;;7.92;100.00
12987;BME280;58897;51.960;5.582;2023-03-20T03:20:47;101621.41;;;7.93;100.00
12987;BME280;58897;51.960;5.582;2023-03-20T03:23:30;101599.13;;;7.70;100.00
12987;BME280;58897;51.960;5.582;2023-03-20T03:25:59;101603.38;;;7.73;100.00
12987;BME280;58897;51.960;5.582;2023-03-20T03:28:41;101603.63;;;7.81;100.00
12987;BME280;58897;51.960;5.582;2023-03-20T03:31:14;101606.44;;;7.79;100.00
12987;BME280;58897;51.960;5.582;2023-03-20T03:33:51;101608.59;;;7.85;100.00
12987;BME280;58897;51.960;5.582;2023-03-20T03:44:58;101616.19;;;7.80;100.00
12987;BME280;58897;51.960;5.582;2023-03-20T03:48:04;101606.84;;;7.64;100.00
12987;BME280;58897;51.960;5.582;2023-03-20T03:50:44;101600.91;;;7.81;100.00
12987;BME280;58897;51.960;5.582;2023-03-20T03:53:21;101612.72;;;7.69;100.00
12987;BME280;58897;51.960;5.582;2023-03-20T03:55:52;101605.84;;;7.65;100.00
12987;BME280;58897;51.960;5.582;2023-03-20T03:58:28;101596.97;;;7.53;100.00
12987;BME280;58897;51.960;5.582;2023-03-20T04:00:57;101601.00;;;7.47;100.00
12987;BME280;58897;51.960;5.582;2023-03-20T04:03:30;101591.13;;;7.48;100.00
12987;BME280;58897;51.960;5.582;2023-03-20T04:05:59;101588.78;;;7.43;100.00
12987;BME280;58897;51.960;5.582;2023-03-20T04:08:28;101590.66;;;7.32;100.00
12987;BME280;58897;51.960;5.582;2023-03-20T04:10:55;101580.88;;;7.31;100.00
12987;BME280;58897;51.960;5.582;2023-03-20T04:13:21;101583.94;;;7.37;100.00
12987;BME280;58897;51.960;5.582;2023-03-20T04:15:48;101580.97;;;7.40;100.00
12987;BME280;58897;51.960;5.582;2023-03-20T04:18:16;101584.63;;;7.51;100.00
12987;BME280;58897;51.960;5.582;2023-03-20T04:20:45;101582.22;;;7.25;100.00
12987;BME280;58897;51.960;5.582;2023-03-20T04:23:13;101580.00;;;7.30;100.00
12987;BME280;58897;51.960;5.582;2023-03-20T04:25:40;101578.81;;;7.23;100.00
12987;BME280;58897;51.960;5.582;2023-03-20T04:28:06;101577.38;;;7.08;100.00
12987;BME280;58897;51.960;5.582;2023-03-20T04:30:33;101573.69;;;7.20;100.00
12987;BME280;58897;51.960;5.582;2023-03-20T04:32:59;101579.91;;;7.10;100.00
12987;BME280;58897;51.960;5.582;2023-03-20T04:35:26;101588.09;;;6.97;100.00
12987;BME280;58897;51.960;5.582;2023-03-20T04:37:52;101579.56;;;6.92;100.00
12987;BME280;58897;51.960;5.582;2023-03-20T04:40:19;101579.31;;;7.06;100.00
12987;BME280;58897;51.960;5.582;2023-03-20T04:42:45;101586.88;;;6.90;100.00
12987;BME280;58897;51.960;5.582;2023-03-20T04:45:12;101584.22;;;7.01;100.00
12987;BME280;58897;51.960;5.582;2023-03-20T04:47:38;101582.25;;;7.03;100.00
12987;BME280;58897;51.960;5.582;2023-03-20T04:50:06;101584.69;;;6.95;100.00
12987;BME280;58897;51.960;5.582;2023-03-20T04:52:33;101594.81;;;7.14;100.00
12987;BME280;58897;51.960;5.582;2023-03-20T04:54:59;101591.41;;;7.01;100.00
12987;BME280;58897;51.960;5.582;2023-03-20T04:57:26;101589.44;;;7.03;100.00
12987;BME280;58897;51.960;5.582;2023-03-20T04:59:53;101589.56;;;7.12;100.00
12987;BME280;58897;51.960;5.582;2023-03-20T05:02:20;101588.22;;;7.07;100.00
12987;BME280;58897;51.960;5.582;2023-03-20T05:04:46;101581.50;;;7.12;100.00
12987;BME280;58897;51.960;5.582;2023-03-20T05:07:13;101575.78;;;7.17;100.00
12987;BME280;58897;51.960;5.582;2023-03-20T05:09:39;101573.69;;;7.20;100.00
12987;BME280;58897;51.960;5.582;2023-03-20T05:12:07;101576.25;;;7.11;100.00
12987;BME280;58897;51.960;5.582;2023-03-20T05:14:34;101576.75;;;7.05;100.00
12987;BME280;58897;51.960;5.582;2023-03-20T05:17:00;101569.31;;;7.08;100.00
12987;BME280;58897;51.960;5.582;2023-03-20T05:19:27;101564.06;;;6.96;100.00
12987;BME280;58897;51.960;5.582;2023-03-20T05:21:54;101560.63;;;7.05;100.00
12987;BME280;58897;51.960;5.582;2023-03-20T05:24:20;101565.63;;;7.09;100.00
12987;BME280;58897;51.960;5.582;2023-03-20T05:26:47;101561.09;;;7.10;100.00
12987;BME280;58897;51.960;5.582;2023-03-20T05:29:13;101562.22;;;7.07;100.00
12987;BME280;58897;51.960;5.582;2023-03-20T05:31:40;101573.47;;;7.01;100.00
12987;BME280;58897;51.960;5.582;2023-03-20T05:34:07;101566.84;;;7.05;100.00
12987;BME280;58897;51.960;5.582;2023-03-20T05:36:33;101570.13;;;7.20;100.00
12987;BME280;58897;51.960;5.582;2023-03-20T05:39:00;101576.25;;;7.22;100.00
12987;BME280;58897;51.960;5.582;2023-03-20T05:41:27;101571.38;;;7.16;100.00
12987;BME280;58897;51.960;5.582;2023-03-20T05:43:53;101571.75;;;7.00;100.00
12987;BME280;58897;51.960;5.582;2023-03-20T05:46:20;101570.41;;;7.17;100.00
12987;BME280;58897;51.960;5.582;2023-03-20T05:48:48;101575.00;;;7.26;100.00
12987;BME280;58897;51.960;5.582;2023-03-20T05:51:14;101576.50;;;7.30;100.00
12987;BME280;58897;51.960;5.582;2023-03-20T05:53:41;101569.16;;;7.21;100.00
12987;BME280;58897;51.960;5.582;2023-03-20T05:56:08;101581.25;;;7.04;100.00
12987;BME280;58897;51.960;5.582;2023-03-20T05:58:34;101574.28;;;7.24;100.00
12987;BME280;58897;51.960;5.582;2023-03-20T06:01:02;101588.22;;;7.29;100.00
12987;BME280;58897;51.960;5.582;2023-03-20T06:03:29;101593.59;;;7.18;100.00
12987;BME280;58897;51.960;5.582;2023-03-20T06:05:55;101588.22;;;7.29;100.00
12987;BME280;58897;51.960;5.582;2023-03-20T06:08:22;101593.81;;;7.26;100.00
12987;BME280;58897;51.960;5.582;2023-03-20T06:10:51;101595.50;;;7.38;100.00
12987;BME280;58897;51.960;5.582;2023-03-20T06:13:18;101597.25;;;7.28;100.00
12987;BME280;58897;51.960;5.582;2023-03-20T06:15:44;101599.59;;;7.21;100.00
12987;BME280;58897;51.960;5.582;2023-03-20T06:18:11;101605.53;;;7.25;100.00
12987;BME280;58897;51.960;5.582;2023-03-20T06:20:37;101603.09;;;7.33;100.00
12987;BME280;58897;51.960;5.582;2023-03-20T06:23:04;101603.22;;;7.42;100.00
12987;BME280;58897;51.960;5.582;2023-03-20T06:25:31;101597.84;;;7.31;100.00
12987;BME280;58897;51.960;5.582;2023-03-20T06:27:58;101601.50;;;7.30;100.00
12987;BME280;58897;51.960;5.582;2023-03-20T06:30:24;101597.63;;;7.23;100.00
12987;BME280;58897;51.960;5.582;2023-03-20T06:32:51;101598.34;;;7.25;100.00
12987;BME280;58897;51.960;5.582;2023-03-20T06:35:18;101603.22;;;7.31;100.00
12987;BME280;58897;51.960;5.582;2023-03-20T06:37:44;101595.31;;;7.30;100.00
12987;BME280;58897;51.960;5.582;2023-03-20T06:40:11;101601.75;;;7.38;100.00
12987;BME280;58897;51.960;5.582;2023-03-20T06:42:38;101606.78;;;7.10;100.00
12987;BME280;58897;51.960;5.582;2023-03-20T06:45:04;101613.59;;;7.36;100.00
12987;BME280;58897;51.960;5.582;2023-03-20T06:47:32;101614.47;;;7.25;100.00
12987;BME280;58897;51.960;5.582;2023-03-20T06:49:58;101615.22;;;7.05;100.00
12987;BME280;58897;51.960;5.582;2023-03-20T06:52:25;101629.53;;;7.17;100.00
12987;BME280;58897;51.960;5.582;2023-03-20T06:54:51;101623.16;;;7.18;100.00
12987;BME280;58897;51.960;5.582;2023-03-20T06:57:18;101636.34;;;7.32;100.00
12987;BME280;58897;51.960;5.582;2023-03-20T06:59:44;101629.63;;;7.26;100.00
12987;BME280;58897;51.960;5.582;2023-03-20T07:02:11;101630.25;;;7.30;100.00
12987;BME280;58897;51.960;5.582;2023-03-20T07:04:38;101626.56;;;7.31;100.00
12987;BME280;58897;51.960;5.582;2023-03-20T07:07:05;101627.19;;;7.45;100.00
12987;BME280;58897;51.960;5.582;2023-03-20T07:09:31;101634.63;;;7.42;100.00
12987;BME280;58897;51.960;5.582;2023-03-20T07:11:58;101629.50;;;7.39;100.00
12987;BME280;58897;51.960;5.582;2023-03-20T07:14:25;101629.63;;;7.37;100.00
12987;BME280;58897;51.960;5.582;2023-03-20T07:16:52;101631.94;;;7.31;100.00
12987;BME280;58897;51.960;5.582;2023-03-20T07:19:18;101634.00;;;7.38;100.00
12987;BME280;58897;51.960;5.582;2023-03-20T07:21:45;101631.44;;;7.26;100.00
12987;BME280;58897;51.960;5.582;2023-03-20T07:24:11;101630.34;;;7.28;100.00
12987;BME280;58897;51.960;5.582;2023-03-20T07:26:38;101629.25;;;7.31;100.00
12987;BME280;58897;51.960;5.582;2023-03-20T07:29:06;101631.84;;;7.32;100.00
12987;BME280;58897;51.960;5.582;2023-03-20T07:31:33;101637.78;;;7.36;100.00
12987;BME280;58897;51.960;5.582;2023-03-20T07:33:59;101634.28;;;7.24;100.00
12987;BME280;58897;51.960;5.582;2023-03-20T07:36:26;101632.94;;;7.30;100.00
12987;BME280;58897;51.960;5.582;2023-03-20T07:38:53;101641.00;;;7.30;100.00
12987;BME280;58897;51.960;5.582;2023-03-20T07:41:19;101640.63;;;7.34;100.00
12987;BME280;58897;51.960;5.582;2023-03-20T07:43:46;101634.63;;;7.53;100.00
12987;BME280;58897;51.960;5.582;2023-03-20T07:46:12;101636.22;;;7.44;100.00
12987;BME280;58897;51.960;5.582;2023-03-20T07:48:39;101638.91;;;7.33;100.00
12987;BME280;58897;51.960;5.582;2023-03-20T07:51:06;101640.72;;;7.33;100.00
12987;BME280;58897;51.960;5.582;2023-03-20T07:53:33;101636.44;;;7.53;100.00
12987;BME280;58897;51.960;5.582;2023-03-20T07:55:59;101635.97;;;7.47;100.00
12987;BME280;58897;51.960;5.582;2023-03-20T07:58:26;101636.84;;;7.37;100.00
12987;BME280;58897;51.960;5.582;2023-03-20T08:00:52;101634.47;;;7.55;100.00
12987;BME280;58897;51.960;5.582;2023-03-20T08:03:21;101626.66;;;7.40;100.00
12987;BME280;58897;51.960;5.582;2023-03-20T08:05:48;101629.81;;;7.57;100.00
12987;BME280;58897;51.960;5.582;2023-03-20T08:08:15;101628.25;;;7.54;100.00
12987;BME280;58897;51.960;5.582;2023-03-20T08:10:42;101634.31;;;7.67;100.00
12987;BME280;58897;51.960;5.582;2023-03-20T08:13:08;101625.03;;;7.71;100.00
12987;BME280;58897;51.960;5.582;2023-03-20T08:15:35;101631.47;;;7.80;100.00
12987;BME280;58897;51.960;5.582;2023-03-20T08:18:02;101623.47;;;7.69;100.00
12987;BME280;58897;51.960;5.582;2023-03-20T08:20:28;101628.16;;;7.87;100.00
12987;BME280;58897;51.960;5.582;2023-03-20T08:22:56;101625.28;;;7.79;100.00
12987;BME280;58897;51.960;5.582;2023-03-20T08:25:23;101623.88;;;7.85;100.00
12987;BME280;58897;51.960;5.582;2023-03-20T08:27:49;101614.13;;;7.84;100.00
12987;BME280;58897;51.960;5.582;2023-03-20T08:30:16;101616.03;;;7.93;100.00
12987;BME280;58897;51.960;5.582;2023-03-20T08:32:42;101618.88;;;7.91;100.00
12987;BME280;58897;51.960;5.582;2023-03-20T08:35:09;101610.91;;;8.22;100.00
12987;BME280;58897;51.960;5.582;2023-03-20T08:37:51;101610.06;;;7.89;100.00
12987;BME280;58897;51.960;5.582;2023-03-20T08:40:17;101606.56;;;8.09;100.00
12987;BME280;58897;51.960;5.582;2023-03-20T08:42:44;101607.97;;;7.93;100.00
12987;BME280;58897;51.960;5.582;2023-03-20T08:45:11;101611.75;;;7.90;100.00
12987;BME280;58897;51.960;5.582;2023-03-20T08:47:38;101605.44;;;8.12;100.00
12987;BME280;58897;51.960;5.582;2023-03-20T08:50:06;101599.94;;;8.14;100.00
12987;BME280;58897;51.960;5.582;2023-03-20T08:52:33;101603.22;;;8.28;100.00
12987;BME280;58897;51.960;5.582;2023-03-20T08:54:59;101600.88;;;8.24;100.00
12987;BME280;58897;51.960;5.582;2023-03-20T08:57:26;101599.47;;;8.08;100.00
12987;BME280;58897;51.960;5.582;2023-03-20T08:59:52;101615.47;;;8.21;100.00
12987;BME280;58897;51.960;5.582;2023-03-20T09:02:19;101599.88;;;8.25;100.00
12987;BME280;58897;51.960;5.582;2023-03-20T09:04:46;101602.16;;;8.08;100.00
12987;BME280;58897;51.960;5.582;2023-03-20T09:07:12;101598.44;;;8.21;100.00
12987;BME280;58897;51.960;5.582;2023-03-20T09:09:40;101604.69;;;8.21;100.00
12987;BME280;58897;51.960;5.582;2023-03-20T09:12:06;101605.13;;;8.05;100.00
12987;BME280;58897;51.960;5.582;2023-03-20T09:14:33;101600.28;;;8.20;100.00
12987;BME280;58897;51.960;5.582;2023-03-20T09:16:59;101620.41;;;8.05;100.00
12987;BME280;58897;51.960;5.582;2023-03-20T09:19:26;101621.91;;;8.19;100.00
12987;BME280;58897;51.960;5.582;2023-03-20T09:21:52;101628.25;;;8.08;100.00
12987;BME280;58897;51.960;5.582;2023-03-20T09:24:19;101631.09;;;8.27;100.00
12987;BME280;58897;51.960;5.582;2023-03-20T09:26:45;101637.09;;;8.20;100.00
12987;BME280;58897;51.960;5.582;2023-03-20T09:29:12;101641.47;;;8.00;100.00
12987;BME280;58897;51.960;5.582;2023-03-20T09:31:38;101636.91;;;8.00;100.00
12987;BME280;58897;51.960;5.582;2023-03-20T09:34:05;101640.34;;;8.02;100.00
12987;BME280;58897;51.960;5.582;2023-03-20T09:36:32;101641.09;;;8.04;100.00
12987;BME280;58897;51.960;5.582;2023-03-20T09:38:58;101645.84;;;8.01;100.00
12987;BME280;58897;51.960;5.582;2023-03-20T09:41:25;101650.13;;;8.03;100.00
12987;BME280;58897;51.960;5.582;2023-03-20T09:44:07;101653.34;;;7.97;100.00
12987;BME280;58897;51.960;5.582;2023-03-20T09:51:56;101650.56;;;8.20;100.00
12987;BME280;58897;51.960;5.582;2023-03-20T09:54:39;101639.53;;;8.23;100.00
12987;BME280;58897;51.960;5.582;2023-03-20T09:57:23;101645.91;;;8.53;100.00
12987;BME280;58897;51.960;5.582;2023-03-20T09:59:55;101633.41;;;8.32;100.00
12987;BME280;58897;51.960;5.582;2023-03-20T10:02:36;101629.94;;;8.41;100.00
12987;BME280;58897;51.960;5.582;2023-03-20T10:05:16;101633.75;;;8.38;100.00
12987;BME280;58897;51.960;5.582;2023-03-20T10:07:43;101624.50;;;8.52;100.00
12987;BME280;58897;51.960;5.582;2023-03-20T10:10:14;101637.50;;;8.67;100.00
12987;BME280;58897;51.960;5.582;2023-03-20T10:12:47;101625.72;;;8.68;100.00
12987;BME280;58897;51.960;5.582;2023-03-20T10:15:31;101628.13;;;8.62;100.00
12987;BME280;58897;51.960;5.582;2023-03-20T10:20:40;101613.28;;;8.98;100.00
12987;BME280;58897;51.960;5.582;2023-03-20T10:23:34;101619.31;;;8.60;100.00
12987;BME280;58897;51.960;5.582;2023-03-20T10:26:06;101611.09;;;8.92;100.00
12987;BME280;58897;51.960;5.582;2023-03-20T10:28:43;101624.13;;;8.87;100.00
12987;BME280;58897;51.960;5.582;2023-03-20T10:42:11;101610.41;;;8.90;100.00
12987;BME280;58897;51.960;5.582;2023-03-20T10:44:42;101612.97;;;8.91;100.00
12987;BME280;58897;51.960;5.582;2023-03-20T10:47:12;101614.13;;;8.68;100.00
12987;BME280;58897;51.960;5.582;2023-03-20T10:49:47;101609.38;;;8.81;100.00
12987;BME280;58897;51.960;5.582;2023-03-20T10:52:21;101605.47;;;8.95;100.00
12987;BME280;58897;51.960;5.582;2023-03-20T10:55:24;101607.50;;;8.82;100.00
12987;BME280;58897;51.960;5.582;2023-03-20T10:57:56;101609.38;;;8.60;100.00
12987;BME280;58897;51.960;5.582;2023-03-20T11:00:25;101606.16;;;8.66;100.00
12987;BME280;58897;51.960;5.582;2023-03-20T11:02:52;101609.25;;;8.62;100.00
12987;BME280;58897;51.960;5.582;2023-03-20T11:05:32;101611.34;;;8.58;100.00
12987;BME280;58897;51.960;5.582;2023-03-20T11:08:05;101602.34;;;8.69;100.00
12987;BME280;58897;51.960;5.582;2023-03-20T11:10:34;101601.63;;;8.67;100.00
12987;BME280;58897;51.960;5.582;2023-03-20T11:13:35;101601.56;;;8.78;100.00
12987;BME280;58897;51.960;5.582;2023-03-20T11:16:20;101600.97;;;9.05;100.00
12987;BME280;58897;51.960;5.582;2023-03-20T11:18:48;101598.50;;;8.92;100.00
12987;BME280;58897;51.960;5.582;2023-03-20T11:21:43;101598.06;;;8.66;100.00
12987;BME280;58897;51.960;5.582;2023-03-20T11:24:40;101598.75;;;8.89;100.00
12987;BME280;58897;51.960;5.582;2023-03-20T11:27:14;101592.94;;;8.84;100.00
12987;BME280;58897;51.960;5.582;2023-03-20T11:29:42;101584.91;;;8.94;100.00
12987;BME280;58897;51.960;5.582;2023-03-20T11:32:33;101580.28;;;8.75;100.00
12987;BME280;58897;51.960;5.582;2023-03-20T11:37:54;101579.81;;;8.70;100.00
12987;BME280;58897;51.960;5.582;2023-03-20T11:40:32;101585.97;;;8.82;100.00
12987;BME280;58897;51.960;5.582;2023-03-20T11:45:27;101584.19;;;8.71;100.00
12987;BME280;58897;51.960;5.582;2023-03-20T11:47:55;101579.88;;;8.80;100.00
12987;BME280;58897;51.960;5.582;2023-03-20T11:50:45;101572.22;;;8.85;100.00
12987;BME280;58897;51.960;5.582;2023-03-20T11:56:33;101568.16;;;8.90;100.00
12987;BME280;58897;51.960;5.582;2023-03-20T12:01:43;101582.69;;;8.78;100.00
12987;BME280;58897;51.960;5.582;2023-03-20T12:04:17;101578.88;;;8.81;100.00
12987;BME280;58897;51.960;5.582;2023-03-20T12:06:55;101569.94;;;8.80;100.00
12987;BME280;58897;51.960;5.582;2023-03-20T12:09:24;101574.03;;;8.75;100.00
12987;BME280;58897;51.960;5.582;2023-03-20T12:11:59;101570.88;;;8.69;100.00
12987;BME280;58897;51.960;5.582;2023-03-20T12:19:53;101561.88;;;8.80;100.00
12987;BME280;58897;51.960;5.582;2023-03-20T12:22:24;101561.44;;;8.85;100.00
12987;BME280;58897;51.960;5.582;2023-03-20T12:27:29;101550.53;;;9.16;100.00
12987;BME280;58897;51.960;5.582;2023-03-20T12:30:10;101557.56;;;9.48;100.00
12987;BME280;58897;51.960;5.582;2023-03-20T12:32:44;101554.63;;;9.11;100.00
12987;BME280;58897;51.960;5.582;2023-03-20T12:35:28;101561.44;;;9.15;100.00
12987;BME280;58897;51.960;5.582;2023-03-20T12:37:55;101553.66;;;9.21;100.00
12987;BME280;58897;51.960;5.582;2023-03-20T12:40:32;101550.78;;;9.13;100.00
12987;BME280;58897;51.960;5.582;2023-03-20T12:43:10;101553.97;;;9.28;100.00
12987;BME280;58897;51.960;5.582;2023-03-20T12:45:50;101545.16;;;9.26;100.00
12987;BME280;58897;51.960;5.582;2023-03-20T12:51:29;101544.16;;;9.17;100.00
12987;BME280;58897;51.960;5.582;2023-03-20T12:54:26;101533.16;;;9.00;100.00
12987;BME280;58897;51.960;5.582;2023-03-20T12:59:48;101530.25;;;9.22;100.00
12987;BME280;58897;51.960;5.582;2023-03-20T13:02:33;101532.94;;;9.12;100.00
12987;BME280;58897;51.960;5.582;2023-03-20T13:11:19;101526.84;;;9.29;100.00
12987;BME280;58897;51.960;5.582;2023-03-20T13:13:52;101527.22;;;9.06;100.00
12987;BME280;58897;51.960;5.582;2023-03-20T13:16:27;101528.34;;;9.03;100.00
12987;BME280;58897;51.960;5.582;2023-03-20T13:21:45;101523.66;;;9.05;100.00
12987;BME280;58897;51.960;5.582;2023-03-20T13:24:25;101521.31;;;8.82;100.00
12987;BME280;58897;51.960;5.582;2023-03-20T13:32:42;101527.31;;;8.95;100.00
12987;BME280;58897;51.960;5.582;2023-03-20T13:35:41;101524.59;;;8.85;100.00
12987;BME280;58897;51.960;5.582;2023-03-20T13:38:22;101518.66;;;8.91;100.00
12987;BME280;58897;51.960;5.582;2023-03-20T13:40:59;101521.81;;;9.06;100.00
12987;BME280;58897;51.960;5.582;2023-03-20T13:43:34;101511.28;;;8.84;100.00
12987;BME280;58897;51.960;5.582;2023-03-20T13:46:06;101513.81;;;8.85;100.00
12987;BME280;58897;51.960;5.582;2023-03-20T13:48:37;101513.13;;;8.93;100.00
12987;BME280;58897;51.960;5.582;2023-03-20T13:54:14;101514.72;;;8.65;100.00
12987;BME280;58897;51.960;5.582;2023-03-20T13:56:57;101514.63;;;8.76;100.00
12987;BME280;58897;51.960;5.582;2023-03-20T14:02:25;101505.56;;;8.77;100.00
12987;BME280;58897;51.960;5.582;2023-03-20T14:05:11;101506.09;;;8.71;100.00
12987;BME280;58897;51.960;5.582;2023-03-20T14:07:43;101505.28;;;8.80;100.00
12987;BME280;58897;51.960;5.582;2023-03-20T14:10:32;101504.13;;;8.73;100.00
12987;BME280;58897;51.960;5.582;2023-03-20T14:13:03;101502.84;;;8.67;100.00
12987;BME280;58897;51.960;5.582;2023-03-20T14:15:35;101499.56;;;8.74;100.00
12987;BME280;58897;51.960;5.582;2023-03-20T14:18:12;101502.16;;;8.75;100.00
12987;BME280;58897;51.960;5.582;2023-03-20T14:20:40;101506.25;;;8.79;100.00
12987;BME280;58897;51.960;5.582;2023-03-20T14:23:16;101498.78;;;8.83;100.00
12987;BME280;58897;51.960;5.582;2023-03-20T14:25:45;101504.84;;;8.75;100.00
12987;BME280;58897;51.960;5.582;2023-03-20T14:35:45;101502.88;;;8.87;100.00
12987;BME280;58897;51.960;5.582;2023-03-20T14:38:24;101506.22;;;8.69;100.00
12987;BME280;58897;51.960;5.582;2023-03-20T14:46:47;101508.66;;;8.73;100.00
12987;BME280;58897;51.960;5.582;2023-03-20T14:52:24;101508.69;;;8.82;100.00
12987;BME280;58897;51.960;5.582;2023-03-20T14:54:53;101510.09;;;8.77;100.00
12987;BME280;58897;51.960;5.582;2023-03-20T14:57:32;101506.69;;;8.75;100.00
12987;BME280;58897;51.960;5.582;2023-03-20T15:00:20;101507.84;;;8.82;100.00
12987;BME280;58897;51.960;5.582;2023-03-20T15:02:51;101514.94;;;8.83;100.00
12987;BME280;58897;51.960;5.582;2023-03-20T15:05:29;101511.34;;;8.73;100.00
12987;BME280;58897;51.960;5.582;2023-03-20T15:08:08;101516.81;;;8.61;100.00
12987;BME280;58897;51.960;5.582;2023-03-20T15:10:44;101514.47;;;8.68;100.00